sensor_id;sensor_type;location;lat;lon;timestamp;P1;durP1;ratioP1;P2;durP2;ratioP2
73940;SDS011;62294;48.554;10.202;2022-09-13T00:00:57;3.40;;;2.20;;
73940;SDS011;62294;48.554;10.202;2022-09-13T00:03:24;3.78;;;2.25;;
73940;SDS011;62294;48.554;10.202;2022-09-13T00:05:52;3.25;;;2.15;;
73940;SDS011;62294;48.554;10.202;2022-09-13T00:08:18;4.45;;;2.58;;
73940;SDS011;62294;48.554;10.202;2022-09-13T00:10:45;3.70;;;2.10;;
73940;SDS011;62294;48.554;10.202;2022-09-13T00:13:13;3.63;;;2.05;;
73940;SDS011;62294;48.554;10.202;2022-09-13T00:15:41;2.38;;;1.77;;
73940;SDS011;62294;48.554;10.202;2022-09-13T00:18:13;3.80;;;2.42;;
73940;SDS011;62294;48.554;10.202;2022-09-13T00:20:40;3.88;;;2.28;;
73940;SDS011;62294;48.554;10.202;2022-09-13T00:23:07;3.38;;;2.50;;
73940;SDS011;62294;48.554;10.202;2022-09-13T00:25:34;3.92;;;2.30;;
73940;SDS011;62294;48.554;10.202;2022-09-13T00:28:02;3.92;;;2.05;;
73940;SDS011;62294;48.554;10.202;2022-09-13T00:30:28;3.50;;;2.13;;
73940;SDS011;62294;48.554;10.202;2022-09-13T00:32:55;4.22;;;2.08;;
73940;SDS011;62294;48.554;10.202;2022-09-13T00:35:22;2.97;;;2.00;;
73940;SDS011;62294;48.554;10.202;2022-09-13T00:37:49;3.50;;;1.77;;
73940;SDS011;62294;48.554;10.202;2022-09-13T00:40:15;5.75;;;2.35;;
73940;SDS011;62294;48.554;10.202;2022-09-13T00:42:42;4.55;;;2.47;;
73940;SDS011;62294;48.554;10.202;2022-09-13T00:47:37;7.07;;;2.35;;
73940;SDS011;62294;48.554;10.202;2022-09-13T00:53:00;6.45;;;2.30;;
73940;SDS011;62294;48.554;10.202;2022-09-13T00:58:15;3.13;;;2.03;;
73940;SDS011;62294;48.554;10.202;2022-09-13T01:00:46;3.30;;;2.25;;
73940;SDS011;62294;48.554;10.202;2022-09-13T01:03:14;5.18;;;2.42;;
73940;SDS011;62294;48.554;10.202;2022-09-13T01:05:48;3.88;;;2.33;;
73940;SDS011;62294;48.554;10.202;2022-09-13T01:08:23;3.70;;;2.20;;
73940;SDS011;62294;48.554;10.202;2022-09-13T01:10:50;4.28;;;2.20;;
73940;SDS011;62294;48.554;10.202;2022-09-13T01:13:19;3.75;;;2.20;;
73940;SDS011;62294;48.554;10.202;2022-09-13T01:15:48;5.18;;;2.53;;
73940;SDS011;62294;48.554;10.202;2022-09-13T01:18:15;4.00;;;2.28;;
73940;SDS011;62294;48.554;10.202;2022-09-13T01:29:33;3.25;;;1.98;;
73940;SDS011;62294;48.554;10.202;2022-09-13T01:48:17;3.17;;;2.03;;
73940;SDS011;62294;48.554;10.202;2022-09-13T01:51:02;5.10;;;2.50;;
73940;SDS011;62294;48.554;10.202;2022-09-13T01:56:35;3.70;;;2.10;;
73940;SDS011;62294;48.554;10.202;2022-09-13T01:59:17;3.72;;;2.03;;
73940;SDS011;62294;48.554;10.202;2022-09-13T02:02:07;3.60;;;2.30;;
73940;SDS011;62294;48.554;10.202;2022-09-13T02:04:44;3.80;;;2.47;;
73940;SDS011;62294;48.554;10.202;2022-09-13T02:07:18;4.03;;;2.20;;
73940;SDS011;62294;48.554;10.202;2022-09-13T02:09:51;3.28;;;2.38;;
73940;SDS011;62294;48.554;10.202;2022-09-13T02:14:55;5.05;;;2.30;;
73940;SDS011;62294;48.554;10.202;2022-09-13T02:17:29;2.67;;;2.08;;
73940;SDS011;62294;48.554;10.202;2022-09-13T02:20:04;3.78;;;2.35;;
73940;SDS011;62294;48.554;10.202;2022-09-13T02:22:39;4.32;;;2.08;;
73940;SDS011;62294;48.554;10.202;2022-09-13T02:25:13;2.30;;;1.80;;
73940;SDS011;62294;48.554;10.202;2022-09-13T02:27:44;2.25;;;2.00;;
73940;SDS011;62294;48.554;10.202;2022-09-13T02:30:13;3.88;;;2.40;;
73940;SDS011;62294;48.554;10.202;2022-09-13T02:35:59;5.43;;;2.33;;
73940;SDS011;62294;48.554;10.202;2022-09-13T02:38:31;3.13;;;1.95;;
73940;SDS011;62294;48.554;10.202;2022-09-13T02:41:13;3.45;;;2.20;;
73940;SDS011;62294;48.554;10.202;2022-09-13T02:43:49;4.28;;;2.38;;
73940;SDS011;62294;48.554;10.202;2022-09-13T02:47:03;3.45;;;2.35;;
73940;SDS011;62294;48.554;10.202;2022-09-13T03:00:40;5.80;;;2.67;;
73940;SDS011;62294;48.554;10.202;2022-09-13T03:03:08;6.75;;;2.38;;
73940;SDS011;62294;48.554;10.202;2022-09-13T03:05:37;4.53;;;2.53;;
73940;SDS011;62294;48.554;10.202;2022-09-13T03:08:04;3.83;;;2.50;;
73940;SDS011;62294;48.554;10.202;2022-09-13T03:10:44;4.38;;;2.42;;
73940;SDS011;62294;48.554;10.202;2022-09-13T03:21:27;5.38;;;2.65;;
73940;SDS011;62294;48.554;10.202;2022-09-13T03:24:21;4.85;;;2.72;;
73940;SDS011;62294;48.554;10.202;2022-09-13T03:26:57;5.00;;;2.67;;
73940;SDS011;62294;48.554;10.202;2022-09-13T03:32:21;6.68;;;3.25;;
73940;SDS011;62294;48.554;10.202;2022-09-13T03:35:07;5.35;;;2.55;;
73940;SDS011;62294;48.554;10.202;2022-09-13T03:37:58;3.72;;;2.25;;
73940;SDS011;62294;48.554;10.202;2022-09-13T03:40:34;6.40;;;2.22;;
73940;SDS011;62294;48.554;10.202;2022-09-13T03:43:05;7.35;;;2.50;;
73940;SDS011;62294;48.554;10.202;2022-09-13T03:45:34;2.92;;;2.08;;
73940;SDS011;62294;48.554;10.202;2022-09-13T03:48:06;3.17;;;2.20;;
73940;SDS011;62294;48.554;10.202;2022-09-13T03:50:36;3.40;;;2.33;;
73940;SDS011;62294;48.554;10.202;2022-09-13T03:53:09;5.20;;;2.60;;
73940;SDS011;62294;48.554;10.202;2022-09-13T03:55:40;3.15;;;2.10;;
73940;SDS011;62294;48.554;10.202;2022-09-13T03:58:09;5.10;;;2.90;;
73940;SDS011;62294;48.554;10.202;2022-09-13T04:00:37;5.72;;;2.47;;
73940;SDS011;62294;48.554;10.202;2022-09-13T04:03:06;6.45;;;2.90;;
73940;SDS011;62294;48.554;10.202;2022-09-13T04:05:34;7.10;;;2.58;;
73940;SDS011;62294;48.554;10.202;2022-09-13T04:08:01;5.80;;;2.65;;
73940;SDS011;62294;48.554;10.202;2022-09-13T04:10:31;6.80;;;2.85;;
73940;SDS011;62294;48.554;10.202;2022-09-13T04:12:58;4.03;;;2.33;;
73940;SDS011;62294;48.554;10.202;2022-09-13T04:15:25;4.05;;;2.47;;
73940;SDS011;62294;48.554;10.202;2022-09-13T04:17:53;5.95;;;2.65;;
73940;SDS011;62294;48.554;10.202;2022-09-13T04:20:19;5.72;;;2.65;;
73940;SDS011;62294;48.554;10.202;2022-09-13T04:22:52;6.53;;;2.47;;
73940;SDS011;62294;48.554;10.202;2022-09-13T04:25:20;8.00;;;3.00;;
73940;SDS011;62294;48.554;10.202;2022-09-13T04:27:47;4.45;;;2.70;;
73940;SDS011;62294;48.554;10.202;2022-09-13T04:30:18;4.57;;;2.97;;
73940;SDS011;62294;48.554;10.202;2022-09-13T04:32:45;9.77;;;2.45;;
73940;SDS011;62294;48.554;10.202;2022-09-13T04:35:11;5.20;;;2.80;;
73940;SDS011;62294;48.554;10.202;2022-09-13T04:37:38;7.43;;;3.13;;
73940;SDS011;62294;48.554;10.202;2022-09-13T04:40:05;7.68;;;2.95;;
73940;SDS011;62294;48.554;10.202;2022-09-13T04:42:33;6.47;;;2.75;;
73940;SDS011;62294;48.554;10.202;2022-09-13T04:44:59;8.10;;;2.97;;
73940;SDS011;62294;48.554;10.202;2022-09-13T04:47:27;4.95;;;2.92;;
73940;SDS011;62294;48.554;10.202;2022-09-13T04:49:53;7.07;;;2.90;;
73940;SDS011;62294;48.554;10.202;2022-09-13T04:52:20;5.88;;;3.17;;
73940;SDS011;62294;48.554;10.202;2022-09-13T04:54:47;6.25;;;3.15;;
73940;SDS011;62294;48.554;10.202;2022-09-13T04:57:13;8.02;;;3.65;;
73940;SDS011;62294;48.554;10.202;2022-09-13T04:59:41;4.03;;;2.70;;
73940;SDS011;62294;48.554;10.202;2022-09-13T05:02:09;3.58;;;2.55;;
73940;SDS011;62294;48.554;10.202;2022-09-13T05:04:36;4.35;;;2.45;;
73940;SDS011;62294;48.554;10.202;2022-09-13T05:07:03;4.80;;;2.97;;
73940;SDS011;62294;48.554;10.202;2022-09-13T05:09:30;4.55;;;2.63;;
73940;SDS011;62294;48.554;10.202;2022-09-13T05:11:57;10.27;;;3.47;;
73940;SDS011;62294;48.554;10.202;2022-09-13T05:14:23;7.88;;;3.55;;
73940;SDS011;62294;48.554;10.202;2022-09-13T05:16:50;6.47;;;2.95;;
73940;SDS011;62294;48.554;10.202;2022-09-13T05:19:16;5.97;;;3.08;;
73940;SDS011;62294;48.554;10.202;2022-09-13T05:21:43;10.02;;;3.72;;
73940;SDS011;62294;48.554;10.202;2022-09-13T05:24:09;6.57;;;3.58;;
73940;SDS011;62294;48.554;10.202;2022-09-13T05:26:37;6.68;;;3.78;;
73940;SDS011;62294;48.554;10.202;2022-09-13T05:29:04;8.13;;;3.97;;
73940;SDS011;62294;48.554;10.202;2022-09-13T05:31:32;10.63;;;4.53;;
73940;SDS011;62294;48.554;10.202;2022-09-13T05:34:02;8.10;;;4.35;;
73940;SDS011;62294;48.554;10.202;2022-09-13T05:36:35;9.30;;;4.78;;
73940;SDS011;62294;48.554;10.202;2022-09-13T05:39:03;8.63;;;4.28;;
73940;SDS011;62294;48.554;10.202;2022-09-13T05:41:50;10.40;;;5.05;;
73940;SDS011;62294;48.554;10.202;2022-09-13T05:44:17;8.95;;;5.35;;
73940;SDS011;62294;48.554;10.202;2022-09-13T05:46:45;13.40;;;5.82;;
73940;SDS011;62294;48.554;10.202;2022-09-13T05:49:13;13.57;;;5.80;;
73940;SDS011;62294;48.554;10.202;2022-09-13T05:51:40;14.30;;;6.50;;
73940;SDS011;62294;48.554;10.202;2022-09-13T05:54:09;17.20;;;7.57;;
73940;SDS011;62294;48.554;10.202;2022-09-13T05:56:36;14.13;;;6.80;;
73940;SDS011;62294;48.554;10.202;2022-09-13T05:59:03;16.05;;;7.40;;
73940;SDS011;62294;48.554;10.202;2022-09-13T06:01:29;15.75;;;7.40;;
73940;SDS011;62294;48.554;10.202;2022-09-13T06:03:56;13.13;;;6.75;;
73940;SDS011;62294;48.554;10.202;2022-09-13T06:06:24;14.73;;;7.03;;
73940;SDS011;62294;48.554;10.202;2022-09-13T06:08:51;12.38;;;6.57;;
73940;SDS011;62294;48.554;10.202;2022-09-13T06:11:18;11.32;;;6.60;;
73940;SDS011;62294;48.554;10.202;2022-09-13T06:13:45;9.52;;;5.80;;
73940;SDS011;62294;48.554;10.202;2022-09-13T06:16:12;20.73;;;9.80;;
73940;SDS011;62294;48.554;10.202;2022-09-13T06:18:39;16.60;;;8.35;;
73940;SDS011;62294;48.554;10.202;2022-09-13T06:21:16;33.38;;;12.60;;
73940;SDS011;62294;48.554;10.202;2022-09-13T06:23:44;41.67;;;13.00;;
73940;SDS011;62294;48.554;10.202;2022-09-13T06:26:17;18.50;;;8.32;;
73940;SDS011;62294;48.554;10.202;2022-09-13T06:28:46;13.65;;;6.63;;
73940;SDS011;62294;48.554;10.202;2022-09-13T06:31:14;14.15;;;7.47;;
73940;SDS011;62294;48.554;10.202;2022-09-13T06:33:43;11.75;;;5.95;;
73940;SDS011;62294;48.554;10.202;2022-09-13T06:36:11;8.80;;;5.47;;
73940;SDS011;62294;48.554;10.202;2022-09-13T06:38:40;18.02;;;6.95;;
73940;SDS011;62294;48.554;10.202;2022-09-13T06:41:07;11.57;;;5.95;;
73940;SDS011;62294;48.554;10.202;2022-09-13T06:43:36;14.35;;;6.88;;
73940;SDS011;62294;48.554;10.202;2022-09-13T06:46:10;16.60;;;6.43;;
73940;SDS011;62294;48.554;10.202;2022-09-13T06:48:40;13.98;;;6.82;;
73940;SDS011;62294;48.554;10.202;2022-09-13T06:51:12;11.05;;;5.45;;
73940;SDS011;62294;48.554;10.202;2022-09-13T06:53:41;10.02;;;5.38;;
73940;SDS011;62294;48.554;10.202;2022-09-13T06:56:09;9.60;;;5.65;;
73940;SDS011;62294;48.554;10.202;2022-09-13T06:58:41;9.30;;;5.85;;
73940;SDS011;62294;48.554;10.202;2022-09-13T07:01:19;13.55;;;6.72;;
73940;SDS011;62294;48.554;10.202;2022-09-13T07:03:52;12.18;;;6.35;;
73940;SDS011;62294;48.554;10.202;2022-09-13T07:06:33;11.68;;;6.68;;
73940;SDS011;62294;48.554;10.202;2022-09-13T07:09:03;12.35;;;6.85;;
73940;SDS011;62294;48.554;10.202;2022-09-13T07:11:32;10.30;;;5.90;;
73940;SDS011;62294;48.554;10.202;2022-09-13T07:14:01;8.88;;;5.50;;
73940;SDS011;62294;48.554;10.202;2022-09-13T07:16:30;14.23;;;7.10;;
73940;SDS011;62294;48.554;10.202;2022-09-13T07:19:03;12.60;;;5.55;;
73940;SDS011;62294;48.554;10.202;2022-09-13T07:21:32;12.70;;;5.13;;
73940;SDS011;62294;48.554;10.202;2022-09-13T07:24:00;10.32;;;5.60;;
73940;SDS011;62294;48.554;10.202;2022-09-13T07:26:27;10.48;;;5.45;;
73940;SDS011;62294;48.554;10.202;2022-09-13T07:28:55;7.90;;;5.40;;
73940;SDS011;62294;48.554;10.202;2022-09-13T07:31:28;11.02;;;5.72;;
73940;SDS011;62294;48.554;10.202;2022-09-13T07:33:56;12.82;;;5.93;;
73940;SDS011;62294;48.554;10.202;2022-09-13T07:36:28;9.95;;;5.38;;
73940;SDS011;62294;48.554;10.202;2022-09-13T07:38:56;10.43;;;6.13;;
73940;SDS011;62294;48.554;10.202;2022-09-13T07:41:23;14.35;;;6.15;;
73940;SDS011;62294;48.554;10.202;2022-09-13T07:43:51;7.90;;;5.45;;
73940;SDS011;62294;48.554;10.202;2022-09-13T07:46:20;9.18;;;5.25;;
73940;SDS011;62294;48.554;10.202;2022-09-13T07:48:48;8.38;;;5.18;;
73940;SDS011;62294;48.554;10.202;2022-09-13T07:51:16;8.80;;;4.63;;
73940;SDS011;62294;48.554;10.202;2022-09-13T07:53:48;8.25;;;4.60;;
73940;SDS011;62294;48.554;10.202;2022-09-13T07:56:23;7.00;;;4.68;;
73940;SDS011;62294;48.554;10.202;2022-09-13T07:58:51;9.70;;;4.65;;
73940;SDS011;62294;48.554;10.202;2022-09-13T08:01:21;7.38;;;4.63;;
73940;SDS011;62294;48.554;10.202;2022-09-13T08:03:50;10.05;;;4.60;;
73940;SDS011;62294;48.554;10.202;2022-09-13T08:06:21;8.07;;;5.30;;
73940;SDS011;62294;48.554;10.202;2022-09-13T08:08:49;7.63;;;5.40;;
73940;SDS011;62294;48.554;10.202;2022-09-13T08:11:23;9.70;;;5.60;;
73940;SDS011;62294;48.554;10.202;2022-09-13T08:13:53;11.55;;;6.70;;
73940;SDS011;62294;48.554;10.202;2022-09-13T08:16:21;11.57;;;5.07;;
73940;SDS011;62294;48.554;10.202;2022-09-13T08:18:49;10.65;;;5.50;;
73940;SDS011;62294;48.554;10.202;2022-09-13T08:21:17;8.80;;;5.15;;
73940;SDS011;62294;48.554;10.202;2022-09-13T08:23:43;6.40;;;4.53;;
73940;SDS011;62294;48.554;10.202;2022-09-13T08:26:11;7.18;;;5.10;;
73940;SDS011;62294;48.554;10.202;2022-09-13T08:28:38;9.07;;;5.57;;
73940;SDS011;62294;48.554;10.202;2022-09-13T08:31:07;11.50;;;5.43;;
73940;SDS011;62294;48.554;10.202;2022-09-13T08:33:34;10.93;;;6.00;;
73940;SDS011;62294;48.554;10.202;2022-09-13T08:36:03;9.45;;;5.53;;
73940;SDS011;62294;48.554;10.202;2022-09-13T08:38:30;9.70;;;6.30;;
73940;SDS011;62294;48.554;10.202;2022-09-13T08:41:05;8.98;;;6.80;;
73940;SDS011;62294;48.554;10.202;2022-09-13T08:43:48;12.57;;;6.38;;
73940;SDS011;62294;48.554;10.202;2022-09-13T08:46:40;11.43;;;6.00;;
73940;SDS011;62294;48.554;10.202;2022-09-13T08:49:32;10.45;;;5.53;;
73940;SDS011;62294;48.554;10.202;2022-09-13T08:52:04;13.07;;;7.72;;
73940;SDS011;62294;48.554;10.202;2022-09-13T08:54:45;9.07;;;5.80;;
73940;SDS011;62294;48.554;10.202;2022-09-13T08:57:15;11.65;;;5.90;;
73940;SDS011;62294;48.554;10.202;2022-09-13T09:03:05;11.15;;;5.50;;
73940;SDS011;62294;48.554;10.202;2022-09-13T09:05:55;11.55;;;4.38;;
73940;SDS011;62294;48.554;10.202;2022-09-13T09:08:27;9.43;;;5.22;;
73940;SDS011;62294;48.554;10.202;2022-09-13T09:11:06;11.15;;;4.70;;
73940;SDS011;62294;48.554;10.202;2022-09-13T09:13:36;12.52;;;4.60;;
73940;SDS011;62294;48.554;10.202;2022-09-13T09:16:25;10.80;;;5.00;;
73940;SDS011;62294;48.554;10.202;2022-09-13T09:18:58;9.40;;;5.03;;
73940;SDS011;62294;48.554;10.202;2022-09-13T09:21:37;7.28;;;5.00;;
73940;SDS011;62294;48.554;10.202;2022-09-13T09:24:04;6.13;;;4.53;;
73940;SDS011;62294;48.554;10.202;2022-09-13T09:26:32;9.10;;;4.80;;
73940;SDS011;62294;48.554;10.202;2022-09-13T09:29:04;7.78;;;4.78;;
73940;SDS011;62294;48.554;10.202;2022-09-13T09:39:47;6.75;;;3.85;;
73940;SDS011;62294;48.554;10.202;2022-09-13T09:42:18;11.48;;;4.03;;
73940;SDS011;62294;48.554;10.202;2022-09-13T09:44:51;7.70;;;3.70;;
73940;SDS011;62294;48.554;10.202;2022-09-13T09:47:21;6.70;;;3.53;;
73940;SDS011;62294;48.554;10.202;2022-09-13T09:52:42;8.98;;;3.60;;
73940;SDS011;62294;48.554;10.202;2022-09-13T09:55:31;8.70;;;3.05;;
73940;SDS011;62294;48.554;10.202;2022-09-13T09:58:04;7.35;;;3.13;;
73940;SDS011;62294;48.554;10.202;2022-09-13T10:00:48;8.32;;;3.60;;
73940;SDS011;62294;48.554;10.202;2022-09-13T10:03:18;5.40;;;3.00;;
73940;SDS011;62294;48.554;10.202;2022-09-13T10:05:46;5.47;;;3.47;;
73940;SDS011;62294;48.554;10.202;2022-09-13T10:08:27;8.90;;;3.33;;
73940;SDS011;62294;48.554;10.202;2022-09-13T10:10:57;5.80;;;3.30;;
73940;SDS011;62294;48.554;10.202;2022-09-13T10:13:25;5.47;;;3.00;;
73940;SDS011;62294;48.554;10.202;2022-09-13T10:16:00;33.25;;;5.82;;
73940;SDS011;62294;48.554;10.202;2022-09-13T10:18:30;6.25;;;2.90;;
73940;SDS011;62294;48.554;10.202;2022-09-13T10:23:43;10.73;;;3.38;;
73940;SDS011;62294;48.554;10.202;2022-09-13T10:26:32;5.30;;;2.72;;
73940;SDS011;62294;48.554;10.202;2022-09-13T10:29:00;7.40;;;3.00;;
73940;SDS011;62294;48.554;10.202;2022-09-13T10:31:34;6.22;;;3.50;;
73940;SDS011;62294;48.554;10.202;2022-09-13T10:34:10;3.47;;;2.47;;
73940;SDS011;62294;48.554;10.202;2022-09-13T10:36:44;5.60;;;2.05;;
73940;SDS011;62294;48.554;10.202;2022-09-13T10:39:18;3.60;;;2.50;;
73940;SDS011;62294;48.554;10.202;2022-09-13T10:41:51;8.05;;;2.60;;
73940;SDS011;62294;48.554;10.202;2022-09-13T10:44:26;5.20;;;2.38;;
73940;SDS011;62294;48.554;10.202;2022-09-13T10:46:58;6.15;;;2.25;;
73940;SDS011;62294;48.554;10.202;2022-09-13T10:49:38;5.75;;;2.30;;
73940;SDS011;62294;48.554;10.202;2022-09-13T10:54:52;4.85;;;2.20;;
73940;SDS011;62294;48.554;10.202;2022-09-13T10:57:38;1.90;;;1.60;;
73940;SDS011;62294;48.554;10.202;2022-09-13T11:00:04;5.75;;;1.70;;
73940;SDS011;62294;48.554;10.202;2022-09-13T11:05:16;2.20;;;1.45;;
73940;SDS011;62294;48.554;10.202;2022-09-13T11:10:29;4.07;;;1.40;;
73940;SDS011;62294;48.554;10.202;2022-09-13T11:24:01;4.07;;;1.48;;
73940;SDS011;62294;48.554;10.202;2022-09-13T11:32:00;0.90;;;0.90;;
73940;SDS011;62294;48.554;10.202;2022-09-13T11:37:23;1.77;;;1.40;;
73940;SDS011;62294;48.554;10.202;2022-09-13T11:46:09;2.30;;;1.20;;
73940;SDS011;62294;48.554;10.202;2022-09-13T11:48:54;2.55;;;1.65;;
73940;SDS011;62294;48.554;10.202;2022-09-13T11:56:59;2.67;;;1.13;;
73940;SDS011;62294;48.554;10.202;2022-09-13T11:59:39;1.30;;;1.20;;
73940;SDS011;62294;48.554;10.202;2022-09-13T12:02:16;2.35;;;1.45;;
73940;SDS011;62294;48.554;10.202;2022-09-13T12:07:51;1.13;;;1.00;;
73940;SDS011;62294;48.554;10.202;2022-09-13T12:10:24;4.18;;;1.23;;
73940;SDS011;62294;48.554;10.202;2022-09-13T12:12:55;3.10;;;1.33;;
73940;SDS011;62294;48.554;10.202;2022-09-13T12:15:37;1.40;;;1.13;;
73940;SDS011;62294;48.554;10.202;2022-09-13T12:18:12;1.10;;;1.00;;
73940;SDS011;62294;48.554;10.202;2022-09-13T12:29:00;1.10;;;1.00;;
73940;SDS011;62294;48.554;10.202;2022-09-13T12:31:48;2.75;;;1.10;;
73940;SDS011;62294;48.554;10.202;2022-09-13T12:34:22;1.20;;;0.98;;
73940;SDS011;62294;48.554;10.202;2022-09-13T12:53:48;0.80;;;0.80;;
73940;SDS011;62294;48.554;10.202;2022-09-13T12:57:06;1.95;;;0.95;;
73940;SDS011;62294;48.554;10.202;2022-09-13T13:00:07;0.98;;;0.93;;
73940;SDS011;62294;48.554;10.202;2022-09-13T13:02:50;1.92;;;0.90;;
73940;SDS011;62294;48.554;10.202;2022-09-13T13:05:34;1.10;;;1.00;;
73940;SDS011;62294;48.554;10.202;2022-09-13T13:13:35;2.28;;;0.95;;
73940;SDS011;62294;48.554;10.202;2022-09-13T13:16:26;2.35;;;0.80;;
73940;SDS011;62294;48.554;10.202;2022-09-13T13:18:59;1.00;;;0.90;;
73940;SDS011;62294;48.554;10.202;2022-09-13T13:21:46;3.13;;;1.13;;
73940;SDS011;62294;48.554;10.202;2022-09-13T13:31:43;1.13;;;0.80;;
73940;SDS011;62294;48.554;10.202;2022-09-13T13:36:44;2.50;;;1.10;;
73940;SDS011;62294;48.554;10.202;2022-09-13T13:47:39;2.20;;;1.00;;
73940;SDS011;62294;48.554;10.202;2022-09-13T13:54:59;1.00;;;1.00;;
73940;SDS011;62294;48.554;10.202;2022-09-13T14:00:19;1.77;;;1.23;;
73940;SDS011;62294;48.554;10.202;2022-09-13T14:13:59;2.15;;;0.90;;
73940;SDS011;62294;48.554;10.202;2022-09-13T14:19:48;3.25;;;1.13;;
73940;SDS011;62294;48.554;10.202;2022-09-13T14:22:22;1.83;;;1.05;;
73940;SDS011;62294;48.554;10.202;2022-09-13T14:24:53;2.90;;;1.30;;
73940;SDS011;62294;48.554;10.202;2022-09-13T14:30:19;3.03;;;0.90;;
73940;SDS011;62294;48.554;10.202;2022-09-13T14:32:56;1.52;;;0.90;;
73940;SDS011;62294;48.554;10.202;2022-09-13T14:35:33;1.25;;;1.00;;
73940;SDS011;62294;48.554;10.202;2022-09-13T14:38:24;2.47;;;0.90;;
73940;SDS011;62294;48.554;10.202;2022-09-13T14:40:57;1.55;;;0.90;;
73940;SDS011;62294;48.554;10.202;2022-09-13T14:43:26;0.80;;;0.80;;
73940;SDS011;62294;48.554;10.202;2022-09-13T14:45:57;0.75;;;0.73;;
73940;SDS011;62294;48.554;10.202;2022-09-13T14:51:23;1.33;;;0.90;;
73940;SDS011;62294;48.554;10.202;2022-09-13T14:54:17;1.35;;;0.77;;
73940;SDS011;62294;48.554;10.202;2022-09-13T14:56:52;2.13;;;0.90;;
73940;SDS011;62294;48.554;10.202;2022-09-13T14:59:25;2.00;;;1.00;;
73940;SDS011;62294;48.554;10.202;2022-09-13T15:01:57;1.48;;;1.10;;
73940;SDS011;62294;48.554;10.202;2022-09-13T15:04:30;8.40;;;1.88;;
73940;SDS011;62294;48.554;10.202;2022-09-13T15:13:05;1.30;;;1.00;;
73940;SDS011;62294;48.554;10.202;2022-09-13T15:15:41;1.88;;;1.27;;
73940;SDS011;62294;48.554;10.202;2022-09-13T15:20:58;2.55;;;0.98;;
73940;SDS011;62294;48.554;10.202;2022-09-13T15:23:28;0.90;;;0.90;;
73940;SDS011;62294;48.554;10.202;2022-09-13T15:26:05;2.15;;;1.08;;
73940;SDS011;62294;48.554;10.202;2022-09-13T15:28:32;5.88;;;0.85;;
73940;SDS011;62294;48.554;10.202;2022-09-13T15:31:24;7.13;;;1.33;;
73940;SDS011;62294;48.554;10.202;2022-09-13T15:36:45;4.88;;;1.45;;
73940;SDS011;62294;48.554;10.202;2022-09-13T15:39:17;1.40;;;1.00;;
73940;SDS011;62294;48.554;10.202;2022-09-13T15:41:55;5.80;;;1.25;;
73940;SDS011;62294;48.554;10.202;2022-09-13T15:44:24;4.68;;;1.17;;
73940;SDS011;62294;48.554;10.202;2022-09-13T15:49:23;1.15;;;1.00;;
73940;SDS011;62294;48.554;10.202;2022-09-13T15:51:56;3.85;;;1.27;;
73940;SDS011;62294;48.554;10.202;2022-09-13T15:54:36;10.73;;;1.50;;
73940;SDS011;62294;48.554;10.202;2022-09-13T15:57:12;3.53;;;1.20;;
73940;SDS011;62294;48.554;10.202;2022-09-13T15:59:43;2.08;;;1.10;;
73940;SDS011;62294;48.554;10.202;2022-09-13T16:02:20;9.63;;;1.52;;
73940;SDS011;62294;48.554;10.202;2022-09-13T16:04:46;8.48;;;1.40;;
73940;SDS011;62294;48.554;10.202;2022-09-13T16:07:14;3.78;;;1.05;;
73940;SDS011;62294;48.554;10.202;2022-09-13T16:09:41;4.28;;;1.45;;
73940;SDS011;62294;48.554;10.202;2022-09-13T16:12:09;7.82;;;1.30;;
73940;SDS011;62294;48.554;10.202;2022-09-13T16:14:36;2.97;;;1.17;;
73940;SDS011;62294;48.554;10.202;2022-09-13T16:17:08;3.35;;;1.30;;
73940;SDS011;62294;48.554;10.202;2022-09-13T16:19:38;2.38;;;2.17;;
73940;SDS011;62294;48.554;10.202;2022-09-13T16:22:04;6.25;;;1.17;;
73940;SDS011;62294;48.554;10.202;2022-09-13T16:24:35;6.28;;;1.38;;
73940;SDS011;62294;48.554;10.202;2022-09-13T16:27:03;2.70;;;1.30;;
73940;SDS011;62294;48.554;10.202;2022-09-13T16:29:30;1.90;;;1.20;;
73940;SDS011;62294;48.554;10.202;2022-09-13T16:31:56;1.92;;;0.90;;
73940;SDS011;62294;48.554;10.202;2022-09-13T16:34:25;2.13;;;0.98;;
73940;SDS011;62294;48.554;10.202;2022-09-13T16:36:52;3.22;;;1.63;;
73940;SDS011;62294;48.554;10.202;2022-09-13T16:39:18;3.70;;;1.20;;
73940;SDS011;62294;48.554;10.202;2022-09-13T16:41:45;1.75;;;1.30;;
73940;SDS011;62294;48.554;10.202;2022-09-13T16:44:11;1.40;;;1.27;;
73940;SDS011;62294;48.554;10.202;2022-09-13T16:46:39;5.78;;;1.33;;
73940;SDS011;62294;48.554;10.202;2022-09-13T16:49:05;2.35;;;1.13;;
73940;SDS011;62294;48.554;10.202;2022-09-13T16:51:32;2.70;;;1.25;;
73940;SDS011;62294;48.554;10.202;2022-09-13T16:53:58;3.05;;;1.15;;
73940;SDS011;62294;48.554;10.202;2022-09-13T16:56:26;4.85;;;1.30;;
73940;SDS011;62294;48.554;10.202;2022-09-13T16:58:52;2.25;;;1.30;;
73940;SDS011;62294;48.554;10.202;2022-09-13T17:01:20;1.95;;;1.33;;
73940;SDS011;62294;48.554;10.202;2022-09-13T17:03:52;2.42;;;1.17;;
73940;SDS011;62294;48.554;10.202;2022-09-13T17:06:20;2.33;;;1.50;;
73940;SDS011;62294;48.554;10.202;2022-09-13T17:08:49;2.10;;;1.20;;
73940;SDS011;62294;48.554;10.202;2022-09-13T17:11:21;1.55;;;1.42;;
73940;SDS011;62294;48.554;10.202;2022-09-13T17:13:51;4.18;;;1.23;;
73940;SDS011;62294;48.554;10.202;2022-09-13T17:16:19;2.85;;;1.20;;
73940;SDS011;62294;48.554;10.202;2022-09-13T17:18:46;4.70;;;1.35;;
73940;SDS011;62294;48.554;10.202;2022-09-13T17:21:13;5.28;;;1.27;;
73940;SDS011;62294;48.554;10.202;2022-09-13T17:23:40;6.30;;;1.55;;
73940;SDS011;62294;48.554;10.202;2022-09-13T17:26:07;2.10;;;1.85;;
73940;SDS011;62294;48.554;10.202;2022-09-13T17:28:33;3.55;;;1.58;;
73940;SDS011;62294;48.554;10.202;2022-09-13T17:31:01;3.15;;;1.50;;
73940;SDS011;62294;48.554;10.202;2022-09-13T17:33:28;2.17;;;1.40;;
73940;SDS011;62294;48.554;10.202;2022-09-13T17:36:01;1.75;;;1.30;;
73940;SDS011;62294;48.554;10.202;2022-09-13T17:38:30;4.05;;;1.42;;
73940;SDS011;62294;48.554;10.202;2022-09-13T17:40:57;6.43;;;1.90;;
73940;SDS011;62294;48.554;10.202;2022-09-13T17:43:27;4.38;;;1.45;;
73940;SDS011;62294;48.554;10.202;2022-09-13T17:45:54;4.70;;;1.55;;
73940;SDS011;62294;48.554;10.202;2022-09-13T17:48:20;4.15;;;1.50;;
73940;SDS011;62294;48.554;10.202;2022-09-13T17:50:47;5.70;;;1.58;;
73940;SDS011;62294;48.554;10.202;2022-09-13T17:53:15;2.15;;;1.65;;
73940;SDS011;62294;48.554;10.202;2022-09-13T17:55:48;2.83;;;1.50;;
73940;SDS011;62294;48.554;10.202;2022-09-13T17:58:15;4.30;;;1.47;;
73940;SDS011;62294;48.554;10.202;2022-09-13T18:00:41;3.63;;;1.70;;
73940;SDS011;62294;48.554;10.202;2022-09-13T18:03:08;3.70;;;1.40;;
73940;SDS011;62294;48.554;10.202;2022-09-13T18:05:35;4.18;;;1.33;;
73940;SDS011;62294;48.554;10.202;2022-09-13T18:08:02;2.65;;;1.40;;
73940;SDS011;62294;48.554;10.202;2022-09-13T18:10:28;1.88;;;1.30;;
73940;SDS011;62294;48.554;10.202;2022-09-13T18:13:15;4.78;;;1.70;;
73940;SDS011;62294;48.554;10.202;2022-09-13T18:15:41;2.00;;;1.50;;
73940;SDS011;62294;48.554;10.202;2022-09-13T18:18:08;1.80;;;1.40;;
73940;SDS011;62294;48.554;10.202;2022-09-13T18:20:34;3.63;;;1.80;;
73940;SDS011;62294;48.554;10.202;2022-09-13T18:23:05;1.40;;;1.20;;
73940;SDS011;62294;48.554;10.202;2022-09-13T18:25:33;2.03;;;1.45;;
73940;SDS011;62294;48.554;10.202;2022-09-13T18:27:59;3.88;;;1.40;;
73940;SDS011;62294;48.554;10.202;2022-09-13T18:30:26;1.58;;;1.20;;